createdAt,value
2018-07-07T00:01:54.144Z,94523.22
2018-07-07T00:04:23.516Z,94521.59
2018-07-07T00:06:52.906Z,94526.70
2018-07-07T00:09:22.910Z,94533.77
2018-07-07T00:11:52.153Z,94527.87
2018-07-07T00:14:21.594Z,94533.35
2018-07-07T00:16:50.858Z,94525.49
2018-07-07T00:19:20.184Z,94526.84
2018-07-07T00:21:49.863Z,94528.97
2018-07-07T00:24:19.255Z,94522.70
2018-07-07T00:26:48.581Z,94524.31
2018-07-07T00:29:18.002Z,94531.11
2018-07-07T00:31:47.598Z,94528.97
2018-07-07T00:34:16.960Z,94521.00
2018-07-07T00:36:47.152Z,94524.17
2018-07-07T00:39:16.967Z,94527.31
2018-07-07T00:41:46.239Z,94519.97
2018-07-07T00:44:15.525Z,94518.62
2018-07-07T00:46:44.811Z,94525.25
2018-07-07T00:49:14.138Z,94518.86
2018-07-07T00:51:43.419Z,94519.89
2018-07-07T00:54:12.803Z,94521.65
2018-07-07T00:56:42.271Z,94513.86
2018-07-07T00:59:11.305Z,94510.48
2018-07-07T01:01:40.506Z,94514.38
2018-07-07T01:04:09.539Z,94515.34
2018-07-07T01:06:38.624Z,94511.92
2018-07-07T01:09:07.711Z,94510.12
2018-07-07T01:11:37.003Z,94513.86
2018-07-07T01:14:06.483Z,94514.61
2018-07-07T01:16:35.939Z,94505.44
2018-07-07T01:19:05.331Z,94502.30
2018-07-07T01:21:35.618Z,94504.69
2018-07-07T01:24:04.741Z,94515.13
2018-07-07T01:26:33.786Z,94512.03
2018-07-07T01:29:02.833Z,94503.61
2018-07-07T01:31:31.791Z,94504.38
2018-07-07T01:34:00.888Z,94505.56
2018-07-07T01:36:30.015Z,94505.84
2018-07-07T01:38:59.117Z,94509.53
2018-07-07T01:41:28.781Z,94507.75
2018-07-07T01:43:57.782Z,94511.88
2018-07-07T01:46:26.775Z,94507.70
2018-07-07T01:48:55.926Z,94499.84
2018-07-07T01:51:24.899Z,94498.46
2018-07-07T01:53:53.954Z,94492.78
2018-07-07T01:56:22.931Z,94490.16
2018-07-07T01:58:52.972Z,94493.03
2018-07-07T02:01:21.963Z,94490.53
2018-07-07T02:03:51.029Z,94492.64
2018-07-07T02:06:20.005Z,94487.64
2018-07-07T02:08:49.113Z,94487.05
2018-07-07T02:11:18.453Z,94492.99
2018-07-07T02:13:47.716Z,94486.77
2018-07-07T02:16:16.753Z,94493.12
2018-07-07T02:18:45.762Z,94500.63
2018-07-07T02:21:14.829Z,94495.66
2018-07-07T02:23:43.990Z,94493.19
2018-07-07T02:26:12.987Z,94496.95
2018-07-07T02:28:42.283Z,94500.09
2018-07-07T02:31:11.336Z,94495.14
2018-07-07T02:33:40.931Z,94486.77
2018-07-07T02:36:09.933Z,94489.81
2018-07-07T02:38:38.996Z,94490.02
2018-07-07T02:41:08.066Z,94486.09
2018-07-07T02:43:37.123Z,94485.67
2018-07-07T02:46:06.093Z,94485.39
2018-07-07T02:48:35.099Z,94480.53
2018-07-07T02:51:04.193Z,94479.56
2018-07-07T02:53:33.291Z,94476.47
2018-07-07T02:56:02.283Z,94470.02
2018-07-07T02:58:31.325Z,94474.50
2018-07-07T03:01:00.486Z,94466.83
2018-07-07T03:03:29.457Z,94474.54
2018-07-07T03:05:58.631Z,94469.97
2018-07-07T03:08:27.662Z,94476.56
2018-07-07T03:10:56.729Z,94474.22
2018-07-07T03:13:25.861Z,94484.18
2018-07-07T03:15:54.906Z,94481.69
2018-07-07T03:18:24.007Z,94491.52
2018-07-07T03:20:53.056Z,94490.64
2018-07-07T03:23:22.033Z,94499.52
2018-07-07T03:25:51.047Z,94497.23
2018-07-07T03:28:20.154Z,94501.76
2018-07-07T03:30:49.201Z,94496.95
2018-07-07T03:33:18.250Z,94502.72
2018-07-07T03:35:47.330Z,94512.03
2018-07-07T03:38:16.293Z,94504.28
2018-07-07T03:40:45.285Z,94501.95
2018-07-07T03:43:14.639Z,94505.64
2018-07-07T03:45:43.632Z,94508.96
2018-07-07T03:48:12.788Z,94504.80
2018-07-07T03:50:42.065Z,94507.15
2018-07-07T03:53:11.131Z,94505.84
2018-07-07T03:55:40.112Z,94512.90
2018-07-07T03:58:09.244Z,94505.87
2018-07-07T04:00:38.236Z,94505.21
2018-07-07T04:03:07.337Z,94498.15
2018-07-07T04:05:36.425Z,94502.98
2018-07-07T04:08:05.535Z,94507.31
2018-07-07T04:10:34.663Z,94515.64
2018-07-07T04:13:03.852Z,94502.31
2018-07-07T04:15:33.051Z,94503.66
2018-07-07T04:18:02.249Z,94494.81
2018-07-07T04:20:31.408Z,94503.86
2018-07-07T04:23:00.461Z,94507.27
2018-07-07T04:25:29.763Z,94505.48
2018-07-07T04:27:58.930Z,94506.60
2018-07-07T04:30:28.114Z,94510.48
2018-07-07T04:32:57.126Z,94511.22
2018-07-07T04:35:26.170Z,94518.44
2018-07-07T04:37:55.187Z,94519.23
2018-07-07T04:40:24.225Z,94518.84
2018-07-07T04:42:53.279Z,94520.38
2018-07-07T04:45:22.290Z,94525.50
2018-07-07T04:47:51.331Z,94520.30
2018-07-07T04:50:20.431Z,94521.45
2018-07-07T04:52:49.892Z,94521.22
2018-07-07T04:55:18.865Z,94526.20
2018-07-07T04:57:47.969Z,94528.41
2018-07-07T05:00:16.981Z,94523.16
2018-07-07T05:02:46.037Z,94524.55
2018-07-07T05:05:15.760Z,94524.34
2018-07-07T05:07:45.088Z,94531.45
2018-07-07T05:10:15.569Z,94526.13
2018-07-07T05:12:44.757Z,94530.78
2018-07-07T05:15:13.930Z,94532.24
2018-07-07T05:17:43.013Z,94534.94
2018-07-07T05:20:12.072Z,94528.97
2018-07-07T05:22:41.031Z,94534.29
2018-07-07T05:25:10.069Z,94538.69
2018-07-07T05:27:39.119Z,94535.91
2018-07-07T05:30:08.202Z,94536.34
2018-07-07T05:32:37.482Z,94532.53
2018-07-07T05:35:06.999Z,94533.99
2018-07-07T05:37:36.359Z,94539.18
2018-07-07T05:40:05.715Z,94545.34
2018-07-07T05:42:35.307Z,94548.75
2018-07-07T05:45:04.886Z,94537.57
2018-07-07T05:47:34.527Z,94546.75
2018-07-07T05:50:03.967Z,94545.99
2018-07-07T05:52:33.356Z,94546.67
2018-07-07T05:55:04.298Z,94546.95
2018-07-07T05:57:33.759Z,94550.61
2018-07-07T06:00:03.725Z,94554.03
2018-07-07T06:02:34.008Z,94550.09
2018-07-07T06:05:03.687Z,94551.72
2018-07-07T06:07:38.715Z,94549.20
2018-07-07T06:10:11.959Z,94556.10
2018-07-07T06:12:43.618Z,94546.44
2018-07-07T06:15:15.023Z,94540.03
2018-07-07T06:17:46.221Z,94544.00
2018-07-07T06:20:35.666Z,94550.50
2018-07-07T06:23:09.386Z,94556.55
2018-07-07T06:25:48.573Z,94556.02
2018-07-07T06:28:20.297Z,94557.09
2018-07-07T06:30:52.470Z,94548.45
2018-07-07T06:33:25.809Z,94552.69
2018-07-07T06:35:58.255Z,94558.30
2018-07-07T06:38:39.887Z,94558.86
2018-07-07T06:41:21.416Z,94569.00
2018-07-07T06:43:53.658Z,94568.31
2018-07-07T06:46:32.084Z,94565.58
2018-07-07T06:49:01.469Z,94572.13
2018-07-07T06:51:30.911Z,94564.25
2018-07-07T06:54:00.278Z,94570.50
2018-07-07T06:56:30.515Z,94575.84
2018-07-07T06:59:00.057Z,94578.45
2018-07-07T07:01:29.356Z,94576.81
2018-07-07T07:03:58.703Z,94571.59
2018-07-07T07:06:28.078Z,94575.91
2018-07-07T07:08:57.692Z,94575.69
2018-07-07T07:11:26.985Z,94585.17
2018-07-07T07:13:56.431Z,94583.41
2018-07-07T07:16:26.261Z,94582.91
2018-07-07T07:18:55.538Z,94578.83
2018-07-07T07:21:25.011Z,94585.40
2018-07-07T07:23:54.575Z,94587.48
2018-07-07T07:26:25.084Z,94587.55
2018-07-07T07:28:54.541Z,94590.77
2018-07-07T07:31:23.935Z,94582.07
2018-07-07T07:33:53.229Z,94582.34
2018-07-07T07:36:44.090Z,94587.66
2018-07-07T07:39:13.851Z,94587.92
2018-07-07T07:41:44.697Z,94587.25
2018-07-07T07:44:14.251Z,94587.66
2018-07-07T07:46:44.354Z,94587.55
2018-07-07T07:49:13.879Z,94591.00
2018-07-07T07:51:43.272Z,94592.02
2018-07-07T07:54:13.500Z,94590.18
2018-07-07T07:56:42.704Z,94594.44
2018-07-07T07:59:14.229Z,94597.14
2018-07-07T08:01:43.703Z,94602.83
2018-07-07T08:04:12.996Z,94599.48
2018-07-07T08:06:42.740Z,94597.91
2018-07-07T08:09:12.794Z,94596.08
2018-07-07T08:11:43.254Z,94603.98
2018-07-07T08:14:12.906Z,94604.26
2018-07-07T08:16:42.448Z,94601.22
2018-07-07T08:19:12.638Z,94605.32
2018-07-07T08:21:42.121Z,94593.84
2018-07-07T08:24:11.591Z,94598.42
2018-07-07T08:26:41.182Z,94600.02
2018-07-07T08:29:11.731Z,94597.17
2018-07-07T08:31:41.399Z,94591.94
2018-07-07T08:34:11.108Z,94598.98
2018-07-07T08:36:40.735Z,94596.39
2018-07-07T08:39:10.626Z,94598.23
2018-07-07T08:41:41.729Z,94597.37
2018-07-07T08:44:11.542Z,94600.31
2018-07-07T08:46:41.078Z,94605.89
2018-07-07T08:49:10.461Z,94605.39
2018-07-07T08:51:39.751Z,94604.86
2018-07-07T08:54:09.324Z,94605.91
2018-07-07T08:56:38.654Z,94607.73
2018-07-07T08:59:07.978Z,94608.98
2018-07-07T09:01:37.715Z,94604.31
2018-07-07T09:04:07.295Z,94600.43
2018-07-07T09:06:36.738Z,94600.77
2018-07-07T09:09:06.666Z,94605.06
2018-07-07T09:11:36.125Z,94607.14
2018-07-07T09:14:05.475Z,94606.91
2018-07-07T09:16:34.738Z,94603.81
2018-07-07T09:19:04.155Z,94609.34
2018-07-07T09:21:33.621Z,94607.49
2018-07-07T09:24:02.855Z,94610.39
2018-07-07T09:26:32.286Z,94608.82
2018-07-07T09:29:01.863Z,94609.09
2018-07-07T09:31:31.253Z,94613.83
2018-07-07T09:34:00.783Z,94608.81
2018-07-07T09:36:31.148Z,94605.66
2018-07-07T09:39:00.877Z,94610.41
2018-07-07T09:41:30.236Z,94614.30
2018-07-07T09:43:59.719Z,94611.33
2018-07-07T09:46:29.539Z,94613.55
2018-07-07T09:48:58.815Z,94610.88
2018-07-07T09:51:28.299Z,94613.28
2018-07-07T09:53:58.038Z,94612.75
2018-07-07T09:56:27.578Z,94608.76
2018-07-07T09:58:56.939Z,94603.48
2018-07-07T10:01:26.719Z,94606.58
2018-07-07T10:03:56.092Z,94605.09
2018-07-07T10:06:25.481Z,94599.89
2018-07-07T10:08:54.831Z,94607.13
2018-07-07T10:11:24.080Z,94606.95
2018-07-07T10:13:53.804Z,94605.06
2018-07-07T10:16:23.212Z,94615.95
2018-07-07T10:18:52.535Z,94614.90
2018-07-07T10:21:22.405Z,94617.25
2018-07-07T10:23:51.759Z,94625.45
2018-07-07T10:26:21.136Z,94619.11
2018-07-07T10:28:51.850Z,94622.75
2018-07-07T10:31:21.383Z,94623.54
2018-07-07T10:33:50.855Z,94625.95
2018-07-07T10:36:20.354Z,94621.36
2018-07-07T10:38:50.161Z,94606.55
2018-07-07T10:41:19.889Z,94604.70
2018-07-07T10:43:49.483Z,94610.43
2018-07-07T10:46:19.388Z,94611.04
2018-07-07T10:48:49.526Z,94602.06
2018-07-07T10:51:18.873Z,94600.39
2018-07-07T10:53:48.307Z,94597.63
2018-07-07T10:56:17.839Z,94598.84
2018-07-07T10:58:47.351Z,94601.45
2018-07-07T11:01:16.931Z,94601.39
2018-07-07T11:03:46.255Z,94604.45
2018-07-07T11:06:15.624Z,94602.66
2018-07-07T11:08:45.051Z,94596.59
2018-07-07T11:11:14.399Z,94596.06
2018-07-07T11:13:43.709Z,94596.84
2018-07-07T11:16:13.356Z,94595.81
2018-07-07T11:18:43.135Z,94599.73
2018-07-07T11:21:12.600Z,94591.52
2018-07-07T11:23:41.932Z,94595.77
2018-07-07T11:26:11.196Z,94584.13
2018-07-07T11:28:40.709Z,94581.56
2018-07-07T11:31:10.046Z,94578.02
2018-07-07T11:33:39.574Z,94568.06
2018-07-07T11:36:08.988Z,94566.80
2018-07-07T11:38:38.461Z,94573.58
2018-07-07T11:41:07.905Z,94564.27
2018-07-07T11:43:37.311Z,94574.92
2018-07-07T11:46:06.769Z,94571.55
2018-07-07T11:48:36.427Z,94568.91
2018-07-07T11:51:05.939Z,94564.45
2018-07-07T11:53:35.467Z,94563.17
2018-07-07T11:56:04.957Z,94560.30
2018-07-07T11:58:34.405Z,94559.28
2018-07-07T12:01:03.818Z,94558.05
2018-07-07T12:03:33.243Z,94557.61
2018-07-07T12:06:02.667Z,94560.28
2018-07-07T12:08:32.231Z,94558.77
2018-07-07T12:11:01.748Z,94552.52
2018-07-07T12:13:31.385Z,94550.38
2018-07-07T12:16:01.011Z,94556.16
2018-07-07T12:18:30.420Z,94549.23
2018-07-07T12:20:59.952Z,94547.26
2018-07-07T12:23:29.476Z,94548.97
2018-07-07T12:25:58.888Z,94552.38
2018-07-07T12:28:28.075Z,94554.44
2018-07-07T12:30:57.504Z,94544.09
2018-07-07T12:33:27.152Z,94549.78
2018-07-07T12:35:56.493Z,94542.19
2018-07-07T12:38:25.763Z,94544.58
2018-07-07T12:40:55.118Z,94550.70
2018-07-07T12:43:24.436Z,94543.00
2018-07-07T12:45:53.923Z,94538.63
2018-07-07T12:48:23.431Z,94546.88
2018-07-07T12:50:52.879Z,94537.95
2018-07-07T12:53:22.271Z,94530.70
2018-07-07T12:55:51.723Z,94537.38
2018-07-07T12:58:21.046Z,94536.35
2018-07-07T13:00:50.418Z,94537.81
2018-07-07T13:03:20.350Z,94535.16
2018-07-07T13:05:49.597Z,94533.77
2018-07-07T13:08:18.831Z,94536.30
2018-07-07T13:10:48.582Z,94527.94
2018-07-07T13:13:18.356Z,94528.64
2018-07-07T13:15:47.736Z,94532.68
2018-07-07T13:18:17.023Z,94536.33
2018-07-07T13:20:46.391Z,94531.63
2018-07-07T13:23:15.617Z,94535.60
2018-07-07T13:25:45.065Z,94534.55
2018-07-07T13:28:14.612Z,94530.84
2018-07-07T13:30:44.009Z,94524.36
2018-07-07T13:33:13.712Z,94521.93
2018-07-07T13:35:43.484Z,94525.71
2018-07-07T13:38:13.399Z,94523.41
2018-07-07T13:40:42.811Z,94525.79
2018-07-07T13:43:12.691Z,94513.55
2018-07-07T13:45:42.062Z,94515.31
2018-07-07T13:48:11.493Z,94516.16
2018-07-07T13:50:40.758Z,94519.38
2018-07-07T13:53:10.079Z,94525.45
2018-07-07T13:55:39.426Z,94522.48
2018-07-07T13:58:08.722Z,94515.34
2018-07-07T14:00:38.024Z,94510.12
2018-07-07T14:03:07.362Z,94511.47
2018-07-07T14:05:36.773Z,94509.86
2018-07-07T14:08:06.100Z,94506.08
2018-07-07T14:10:35.430Z,94509.05
2018-07-07T14:13:04.666Z,94502.78
2018-07-07T14:15:34.255Z,94505.22
2018-07-07T14:18:03.724Z,94506.20
2018-07-07T14:20:33.045Z,94505.45
2018-07-07T14:23:02.357Z,94504.16
2018-07-07T14:25:31.666Z,94505.75
2018-07-07T14:28:00.911Z,94501.87
2018-07-07T14:30:30.219Z,94504.52
2018-07-07T14:32:59.673Z,94495.33
2018-07-07T14:35:29.089Z,94496.67
2018-07-07T14:37:58.651Z,94497.03
2018-07-07T14:40:28.044Z,94500.34
2018-07-07T14:42:58.071Z,94491.47
2018-07-07T14:45:30.046Z,94485.06
2018-07-07T14:48:01.705Z,94494.80
2018-07-07T14:50:31.130Z,94500.91
2018-07-07T14:53:00.420Z,94492.10
2018-07-07T14:55:30.109Z,94482.76
2018-07-07T14:58:00.257Z,94492.64
2018-07-07T15:00:30.010Z,94488.45
2018-07-07T15:02:59.980Z,94494.69
2018-07-07T15:05:29.269Z,94489.50
2018-07-07T15:07:58.667Z,94492.38
2018-07-07T15:10:28.121Z,94486.08
2018-07-07T15:12:57.734Z,94488.25
2018-07-07T15:15:27.465Z,94492.69
2018-07-07T15:17:56.864Z,94485.16
2018-07-07T15:20:26.290Z,94470.20
2018-07-07T15:22:55.641Z,94481.88
2018-07-07T15:25:24.926Z,94482.61
2018-07-07T15:27:54.229Z,94481.09
2018-07-07T15:30:23.594Z,94484.73
2018-07-07T15:32:53.874Z,94479.23
2018-07-07T15:35:23.327Z,94485.72
2018-07-07T15:37:52.762Z,94481.80
2018-07-07T15:40:22.006Z,94485.86
2018-07-07T15:42:51.372Z,94489.88
2018-07-07T15:45:20.780Z,94500.76
2018-07-07T15:47:50.245Z,94490.09
2018-07-07T15:50:19.579Z,94493.30
2018-07-07T15:52:49.108Z,94489.50
2018-07-07T15:55:19.576Z,94483.93
2018-07-07T15:57:49.787Z,94483.14
2018-07-07T16:00:19.170Z,94491.95
2018-07-07T16:02:48.785Z,94488.24
2018-07-07T16:05:18.232Z,94483.93
2018-07-07T16:07:47.645Z,94490.17
2018-07-07T16:10:17.543Z,94491.56
2018-07-07T16:12:46.977Z,94482.48
2018-07-07T16:15:16.320Z,94491.01
2018-07-07T16:17:48.740Z,94486.17
2018-07-07T16:20:18.119Z,94484.17
2018-07-07T16:22:47.543Z,94487.48
2018-07-07T16:25:16.804Z,94487.09
2018-07-07T16:27:46.124Z,94487.25
2018-07-07T16:30:15.629Z,94486.70
2018-07-07T16:32:45.024Z,94499.17
2018-07-07T16:35:14.443Z,94494.81
2018-07-07T16:37:43.665Z,94498.17
2018-07-07T16:40:12.994Z,94487.09
2018-07-07T16:42:42.854Z,94492.42
2018-07-07T16:45:12.281Z,94492.77
2018-07-07T16:47:42.502Z,94496.98
2018-07-07T16:50:13.053Z,94499.66
2018-07-07T16:52:43.126Z,94503.36
2018-07-07T16:55:12.728Z,94505.73
2018-07-07T16:57:42.399Z,94498.07
2018-07-07T17:00:11.829Z,94497.28
2018-07-07T17:02:41.529Z,94498.62
2018-07-07T17:05:11.334Z,94500.19
2018-07-07T17:07:40.847Z,94503.10
2018-07-07T17:10:10.259Z,94501.78
2018-07-07T17:12:39.686Z,94503.08
2018-07-07T17:15:08.912Z,94512.55
2018-07-07T17:17:38.349Z,94515.42
2018-07-07T17:20:07.953Z,94519.06
2018-07-07T17:22:37.524Z,94522.44
2018-07-07T17:25:07.069Z,94526.34
2018-07-07T17:27:36.521Z,94524.19
2018-07-07T17:30:05.887Z,94529.48
2018-07-07T17:32:35.347Z,94534.47
2018-07-07T17:35:04.680Z,94537.31
2018-07-07T17:37:34.154Z,94537.02
2018-07-07T17:40:03.605Z,94532.84
2018-07-07T17:42:33.033Z,94539.66
2018-07-07T17:45:03.004Z,94539.09
2018-07-07T17:47:32.456Z,94537.45
2018-07-07T17:50:03.311Z,94543.23
2018-07-07T17:52:33.953Z,94546.70
2018-07-07T17:55:05.004Z,94549.28
2018-07-07T17:57:34.642Z,94548.20
2018-07-07T18:00:04.566Z,94552.39
2018-07-07T18:02:33.991Z,94548.77
2018-07-07T18:05:03.393Z,94551.06
2018-07-07T18:07:32.733Z,94552.88
2018-07-07T18:10:02.075Z,94549.41
2018-07-07T18:12:31.520Z,94555.45
2018-07-07T18:15:00.899Z,94559.41
2018-07-07T18:17:31.291Z,94555.47
2018-07-07T18:20:00.699Z,94561.89
2018-07-07T18:22:30.202Z,94557.09
2018-07-07T18:24:59.688Z,94561.88
2018-07-07T18:27:29.417Z,94559.47
2018-07-07T18:29:59.835Z,94556.91
2018-07-07T18:32:29.354Z,94559.94
2018-07-07T18:34:59.704Z,94558.80
2018-07-07T18:37:29.153Z,94554.72
2018-07-07T18:39:58.482Z,94557.17
2018-07-07T18:42:28.746Z,94556.88
2018-07-07T18:44:58.150Z,94560.43
2018-07-07T18:47:27.612Z,94556.95
2018-07-07T18:49:56.982Z,94557.86
2018-07-07T18:52:27.736Z,94568.63
2018-07-07T18:54:57.113Z,94557.06
2018-07-07T18:57:26.582Z,94568.08
2018-07-07T18:59:56.651Z,94563.90
2018-07-07T19:02:26.403Z,94567.28
2018-07-07T19:04:55.593Z,94562.66
2018-07-07T19:07:25.068Z,94565.77
2018-07-07T19:09:54.588Z,94568.73
2018-07-07T19:12:24.013Z,94573.90
2018-07-07T19:14:57.043Z,94577.03
2018-07-07T19:17:26.330Z,94583.08
2018-07-07T19:19:56.216Z,94588.08
2018-07-07T19:22:30.715Z,94588.25
2018-07-07T19:25:05.032Z,94592.38
2018-07-07T19:27:34.686Z,94600.36
2018-07-07T19:30:04.316Z,94602.98
2018-07-07T19:32:39.388Z,94602.58
2018-07-07T19:35:14.392Z,94596.27
2018-07-07T19:37:44.091Z,94597.34
2018-07-07T19:40:13.982Z,94603.84
2018-07-07T19:42:43.776Z,94608.64
2018-07-07T19:45:14.768Z,94604.19
2018-07-07T19:47:44.684Z,94606.48
2018-07-07T19:50:14.143Z,94606.41
2018-07-07T19:52:44.770Z,94609.61
2018-07-07T19:55:14.527Z,94611.64
2018-07-07T19:57:44.231Z,94612.27
2018-07-07T20:00:14.817Z,94617.95
2018-07-07T20:02:44.527Z,94622.92
2018-07-07T20:05:14.912Z,94611.55
2018-07-07T20:07:45.678Z,94609.45
2018-07-07T20:10:15.781Z,94615.86
2018-07-07T20:12:45.225Z,94619.50
2018-07-07T20:15:15.190Z,94620.91
2018-07-07T20:17:55.541Z,94615.70
2018-07-07T20:20:36.693Z,94615.86
2018-07-07T20:23:07.618Z,94618.25
2018-07-07T20:25:37.525Z,94614.78
2018-07-07T20:28:12.958Z,94619.27
2018-07-07T20:30:42.720Z,94623.85
2018-07-07T20:33:12.422Z,94616.75
2018-07-07T20:35:43.226Z,94614.03
2018-07-07T20:38:14.490Z,94621.61
2018-07-07T20:40:46.913Z,94619.06
2018-07-07T20:43:16.943Z,94618.97
2018-07-07T20:45:47.013Z,94620.61
2018-07-07T20:48:17.625Z,94621.41
2018-07-07T20:50:47.067Z,94622.10
2018-07-07T20:53:17.481Z,94621.13
2018-07-07T20:55:46.811Z,94624.89
2018-07-07T20:58:16.075Z,94621.55
2018-07-07T21:00:45.374Z,94623.13
2018-07-07T21:03:14.773Z,94618.81
2018-07-07T21:05:44.190Z,94626.46
2018-07-07T21:08:13.802Z,94630.50
2018-07-07T21:10:43.232Z,94626.65
2018-07-07T21:13:12.755Z,94627.67
2018-07-07T21:15:42.234Z,94631.47
2018-07-07T21:18:11.693Z,94633.16
2018-07-07T21:20:41.984Z,94634.27
2018-07-07T21:23:11.683Z,94640.39
2018-07-07T21:25:41.074Z,94637.60
2018-07-07T21:28:10.380Z,94634.78
2018-07-07T21:30:39.817Z,94634.55
2018-07-07T21:33:09.120Z,94633.63
2018-07-07T21:35:38.526Z,94640.24
2018-07-07T21:38:07.977Z,94641.65
2018-07-07T21:40:37.431Z,94635.80
2018-07-07T21:43:06.781Z,94643.98
2018-07-07T21:45:36.112Z,94636.19
2018-07-07T21:48:05.983Z,94642.16
2018-07-07T21:50:35.343Z,94646.20
2018-07-07T21:53:04.919Z,94643.59
2018-07-07T21:55:34.630Z,94641.02
2018-07-07T21:58:09.510Z,94639.11
2018-07-07T22:03:01.244Z,94636.09
2018-07-07T22:05:33.191Z,94635.19
2018-07-07T22:08:07.844Z,94632.61
2018-07-07T22:10:37.748Z,94636.61
2018-07-07T22:13:07.121Z,94633.34
2018-07-07T22:15:36.333Z,94642.23
2018-07-07T22:18:05.929Z,94636.27
2018-07-07T22:20:36.428Z,94636.44
2018-07-07T22:23:05.980Z,94638.26
2018-07-07T22:25:35.306Z,94639.56
2018-07-07T22:28:04.719Z,94637.16
2018-07-07T22:30:34.402Z,94636.30
2018-07-07T22:33:09.124Z,94642.21
2018-07-07T22:35:43.446Z,94632.55
2018-07-07T22:38:17.859Z,94632.69
2018-07-07T22:40:47.368Z,94637.34
2018-07-07T22:43:16.823Z,94629.91
2018-07-07T22:45:46.157Z,94630.92
2018-07-07T22:48:15.547Z,94626.48
2018-07-07T22:50:45.001Z,94632.30
2018-07-07T22:53:14.384Z,94628.76
2018-07-07T22:55:44.540Z,94629.78
2018-07-07T22:58:13.771Z,94618.08
2018-07-07T23:00:43.115Z,94625.08
2018-07-07T23:03:13.297Z,94624.16
2018-07-07T23:05:42.719Z,94625.02
2018-07-07T23:08:12.415Z,94627.34
2018-07-07T23:10:41.801Z,94622.03
2018-07-07T23:13:11.080Z,94622.03
2018-07-07T23:15:40.424Z,94624.78
2018-07-07T23:18:09.796Z,94621.88
2018-07-07T23:20:39.031Z,94615.86
2018-07-07T23:23:08.365Z,94612.59
2018-07-07T23:25:39.324Z,94618.25
2018-07-07T23:28:09.746Z,94613.31
2018-07-07T23:30:39.218Z,94610.30
2018-07-07T23:33:08.723Z,94605.70
2018-07-07T23:35:38.248Z,94608.89
2018-07-07T23:38:07.644Z,94607.67
2018-07-07T23:40:37.168Z,94605.20
2018-07-07T23:43:06.664Z,94600.94
2018-07-07T23:45:35.946Z,94603.34
2018-07-07T23:48:05.228Z,94601.14
2018-07-07T23:50:34.508Z,94607.26
2018-07-07T23:53:03.819Z,94609.49
2018-07-07T23:55:33.121Z,94606.24
2018-07-07T23:58:02.546Z,94598.88
